Time;durP1;ratioP1;P1;durP2;ratioP2;P2;SDS_P1;SDS_P2;PMS_P1;PMS_P2;Temp;Humidity;BMP_temperature;BMP_pressure;BME280_temperature;BME280_humidity;BME280_pressure;Samples;Min_cycle;Max_cycle;Signal;HPM_P1;HPM_P2
2023/01/29 00:01:22;;;;;;;10.40;5.68;;;-0.80;99.90;;;;;;2603272;54;20031;31
2023/01/29 00:04:01;;;;;;;10.75;5.80;;;-0.80;99.90;;;;;;2603343;54;20878;31
2023/01/29 00:09:12;;;;;;;11.55;6.45;;;-0.80;99.90;;;;;;2621531;46;20888;31
2023/01/29 00:11:53;;;;;;;13.50;6.88;;;-0.90;99.90;;;;;;2621718;46;20026;31
2023/01/29 00:14:29;;;;;;;16.13;8.00;;;-0.90;99.90;;;;;;2603505;54;20806;31
2023/01/29 00:17:09;;;;;;;18.65;7.20;;;-0.80;99.90;;;;;;2602664;54;20065;31
2023/01/29 00:19:47;;;;;;;17.60;8.30;;;-0.90;99.90;;;;;;2603347;54;20034;31
2023/01/29 00:22:22;;;;;;;17.58;7.80;;;-0.90;99.90;;;;;;2603039;54;20845;31
2023/01/29 00:25:00;;;;;;;18.70;9.38;;;-0.90;99.90;;;;;;2603309;54;20149;31
2023/01/29 00:27:39;;;;;;;12.00;7.32;;;-0.90;99.90;;;;;;2603295;54;20026;31
2023/01/29 00:30:18;;;;;;;15.45;7.13;;;-0.90;99.90;;;;;;2603139;54;20075;31
2023/01/29 00:33:03;;;;;;;15.07;7.40;;;-0.90;99.90;;;;;;2603181;54;20049;31
2023/01/29 00:35:44;;;;;;;15.18;7.57;;;-1.00;99.90;;;;;;2603455;54;20100;31
2023/01/29 00:38:26;;;;;;;11.93;7.13;;;-0.90;99.90;;;;;;2602425;54;20081;31
2023/01/29 00:47:03;;;;;;;36.97;16.20;;;-0.90;99.90;;;;;;2603321;54;20049;31
2023/01/29 00:49:44;;;;;;;36.35;14.35;;;-0.90;99.90;;;;;;2602845;54;20033;31
2023/01/29 00:52:27;;;;;;;30.25;12.18;;;-0.90;99.90;;;;;;2621441;46;20856;31
2023/01/29 00:55:05;;;;;;;34.33;15.07;;;-0.90;99.90;;;;;;2603311;54;20034;31
2023/01/29 00:57:42;;;;;;;30.40;14.32;;;-0.90;99.90;;;;;;2602657;54;20034;31
2023/01/29 01:00:19;;;;;;;21.45;11.20;;;-1.00;99.90;;;;;;2617540;46;20658;31
2023/01/29 01:03:06;;;;;;;16.80;8.90;;;-1.00;99.90;;;;;;2621544;46;20023;31
2023/01/29 01:05:44;;;;;;;21.00;11.15;;;-0.90;99.90;;;;;;2603370;54;20030;31
2023/01/29 01:11:10;;;;;;;16.20;8.40;;;-0.90;99.90;;;;;;2603050;54;20072;31
2023/01/29 01:16:34;;;;;;;16.67;8.40;;;-1.00;99.90;;;;;;2602676;54;20850;31
2023/01/29 01:22:05;;;;;;;13.38;8.40;;;-1.00;99.90;;;;;;2602457;54;20123;31
2023/01/29 01:24:43;;;;;;;17.98;8.63;;;-1.00;99.90;;;;;;2621683;47;20862;31
2023/01/29 01:27:21;;;;;;;15.23;8.93;;;-1.10;99.90;;;;;;2603051;54;20026;31
2023/01/29 01:29:57;;;;;;;15.17;9.17;;;-1.10;99.90;;;;;;2603099;54;20893;31
2023/01/29 01:32:35;;;;;;;14.13;9.20;;;-1.10;99.90;;;;;;2603302;54;20892;31
2023/01/29 01:35:13;;;;;;;15.10;8.50;;;-1.10;99.90;;;;;;2604136;54;20038;31
2023/01/29 01:37:53;;;;;;;17.40;8.90;;;-1.10;99.90;;;;;;2603971;54;20811;31
2023/01/29 01:40:29;;;;;;;16.48;9.65;;;-1.10;99.90;;;;;;2604018;54;20109;31
2023/01/29 01:43:05;;;;;;;17.65;9.40;;;-1.10;99.90;;;;;;2604023;54;20026;31
2023/01/29 01:45:42;;;;;;;20.70;9.52;;;-1.10;99.90;;;;;;2604020;54;21566;31
2023/01/29 01:48:19;;;;;;;16.75;9.98;;;-1.00;99.90;;;;;;2603065;54;20107;31
2023/01/29 01:50:59;;;;;;;17.30;9.85;;;-1.10;99.90;;;;;;2603068;54;20030;31
2023/01/29 01:53:40;;;;;;;18.90;10.43;;;-1.10;99.90;;;;;;2604016;54;20029;31
2023/01/29 01:56:18;;;;;;;19.98;11.00;;;-1.00;99.90;;;;;;2603111;54;20028;31
2023/01/29 01:58:57;;;;;;;17.83;9.70;;;-1.10;99.90;;;;;;2617757;46;20033;31
2023/01/29 02:01:31;;;;;;;14.63;8.18;;;-1.00;99.90;;;;;;2602962;54;20061;31
2023/01/29 02:09:51;;;;;;;15.20;8.65;;;-1.00;99.90;;;;;;2604005;54;20896;31
2023/01/29 02:12:30;;;;;;;15.10;8.60;;;-1.00;99.90;;;;;;2603827;54;20026;31
2023/01/29 02:15:08;;;;;;;15.52;9.38;;;-1.00;99.90;;;;;;2604024;54;21079;31
2023/01/29 02:17:47;;;;;;;14.30;8.68;;;-0.90;99.90;;;;;;2604004;54;20030;31
2023/01/29 02:20:24;;;;;;;14.30;7.90;;;-0.90;99.90;;;;;;2603803;54;20026;31
2023/01/29 02:23:37;;;;;;;13.80;8.20;;;-0.90;99.90;;;;;;2603778;54;20034;31
2023/01/29 02:26:26;;;;;;;14.70;7.25;;;-0.90;99.90;;;;;;2603545;54;20948;31
2023/01/29 02:32:10;;;;;;;11.60;6.72;;;-0.90;99.90;;;;;;2603964;54;20085;31
2023/01/29 02:37:36;;;;;;;11.60;6.82;;;-0.90;99.90;;;;;;2603648;54;20960;31
2023/01/29 02:40:19;;;;;;;12.30;7.00;;;-0.90;99.90;;;;;;2603811;54;20030;31
2023/01/29 02:42:55;;;;;;;11.38;6.63;;;-0.90;99.90;;;;;;2622058;46;20034;31
2023/01/29 02:45:34;;;;;;;13.93;7.83;;;-0.90;99.90;;;;;;2603603;54;20058;31
2023/01/29 02:48:13;;;;;;;12.45;7.63;;;-0.90;99.90;;;;;;2603586;54;21150;31
2023/01/29 02:50:55;;;;;;;11.23;7.20;;;-0.90;99.90;;;;;;2622210;46;20085;31
2023/01/29 02:53:31;;;;;;;12.10;7.75;;;-0.90;99.90;;;;;;2603578;54;20031;31
2023/01/29 02:56:11;;;;;;;12.80;7.72;;;-0.90;99.90;;;;;;2603843;54;20058;31
2023/01/29 02:58:51;;;;;;;12.88;8.77;;;-0.90;99.90;;;;;;2603638;54;20031;31
2023/01/29 03:01:25;;;;;;;14.25;7.63;;;-0.90;99.90;;;;;;2603578;54;20081;31
2023/01/29 03:04:08;;;;;;;14.32;8.85;;;-0.90;99.90;;;;;;2621641;46;20108;31
2023/01/29 03:06:46;;;;;;;14.27;8.00;;;-0.90;99.90;;;;;;2621916;46;20026;31
2023/01/29 03:09:26;;;;;;;13.73;7.90;;;-0.90;99.90;;;;;;2603781;54;20046;31
2023/01/29 03:15:10;;;;;;;14.18;8.45;;;-0.90;99.90;;;;;;2702125;39;20481;31
2023/01/29 03:17:40;;;;;;;14.07;7.93;;;-0.90;99.90;;;;;;2622000;46;20761;31
2023/01/29 03:20:24;;;;;;;10.93;6.40;;;-0.80;99.90;;;;;;2603481;54;20922;31
2023/01/29 03:23:00;;;;;;;18.75;8.43;;;-0.90;99.90;;;;;;2603324;54;20026;31
2023/01/29 03:34:15;;;;;;;14.55;8.05;;;-0.90;99.90;;;;;;2603365;54;20100;31
2023/01/29 03:36:56;;;;;;;14.95;8.50;;;-0.90;99.90;;;;;;2603409;54;20068;31
2023/01/29 03:39:31;;;;;;;14.65;8.35;;;-0.90;99.90;;;;;;2603655;54;20029;31
2023/01/29 03:42:14;;;;;;;13.02;7.30;;;-0.90;99.90;;;;;;2603562;54;20144;31
2023/01/29 03:44:55;;;;;;;15.47;8.93;;;-0.90;99.90;;;;;;2603455;54;20149;31
2023/01/29 03:47:45;;;;;;;13.80;8.47;;;-0.80;99.90;;;;;;2622022;46;20925;31
2023/01/29 03:50:29;;;;;;;10.75;6.82;;;-0.80;99.90;;;;;;2603439;54;20078;31
2023/01/29 03:53:11;;;;;;;12.90;7.35;;;-0.90;99.90;;;;;;2603255;54;20027;31
2023/01/29 03:55:54;;;;;;;10.30;6.20;;;-0.80;99.90;;;;;;2603090;54;20031;31
2023/01/29 03:58:37;;;;;;;12.70;6.50;;;-0.90;99.90;;;;;;2622019;46;20560;31
2023/01/29 04:01:16;;;;;;;12.13;7.15;;;-0.80;99.90;;;;;;2603554;54;20057;31
2023/01/29 04:03:57;;;;;;;10.00;5.83;;;-0.90;99.90;;;;;;2603238;54;20135;31
2023/01/29 04:06:32;;;;;;;9.45;6.95;;;-0.80;99.90;;;;;;2621896;46;20033;31
2023/01/29 04:09:19;;;;;;;8.02;5.43;;;-0.80;99.90;;;;;;2603432;54;20033;31
2023/01/29 04:11:57;;;;;;;8.13;5.53;;;-0.80;99.90;;;;;;2603400;54;20861;31
2023/01/29 04:14:33;;;;;;;9.77;5.53;;;-0.80;99.90;;;;;;2603380;54;20841;31
2023/01/29 04:17:11;;;;;;;11.93;7.43;;;-0.80;99.90;;;;;;2621765;46;20982;31
2023/01/29 04:20:02;;;;;;;9.88;5.70;;;-0.80;99.90;;;;;;2603409;54;20162;31
2023/01/29 04:22:40;;;;;;;9.27;5.80;;;-0.80;99.90;;;;;;2603330;54;19941;31
2023/01/29 04:25:25;;;;;;;8.50;5.70;;;-0.80;99.90;;;;;;2603385;54;20030;31
2023/01/29 04:28:04;;;;;;;;;;;-0.80;99.90;;;;;;2603462;54;20061;31
2023/01/29 04:30:45;;;;;;;6.90;5.60;;;-0.80;99.90;;;;;;2603305;54;19934;31
2023/01/29 04:33:25;;;;;;;8.77;5.03;;;-0.80;99.90;;;;;;2603060;54;20026;31
2023/01/29 04:36:16;;;;;;;8.30;5.80;;;-0.80;99.90;;;;;;2702158;39;22340;31
2023/01/29 04:39:02;;;;;;;9.57;6.03;;;-0.80;99.90;;;;;;2603431;54;20577;31
2023/01/29 04:41:44;;;;;;;9.10;6.55;;;-0.90;99.90;;;;;;2603396;54;20053;31
2023/01/29 04:44:23;;;;;;;8.32;6.00;;;-0.80;99.90;;;;;;2603253;54;20809;31
2023/01/29 04:46:57;;;;;;;10.00;6.72;;;-0.90;99.90;;;;;;2621775;46;20755;31
2023/01/29 04:49:36;;;;;;;13.68;7.50;;;-0.80;99.90;;;;;;2602817;54;20038;31
2023/01/29 04:52:17;;;;;;;11.93;7.13;;;-0.90;99.90;;;;;;2603432;54;20031;31
2023/01/29 04:54:56;;;;;;;12.45;7.85;;;-0.90;99.90;;;;;;2603120;54;20034;31
2023/01/29 04:57:33;;;;;;;9.95;7.45;;;-0.90;99.90;;;;;;2603418;54;20644;31
2023/01/29 05:00:18;;;;;;;10.50;8.05;;;-0.90;99.90;;;;;;2613725;46;20784;31
2023/01/29 05:02:55;;;;;;;13.32;8.57;;;-0.90;99.90;;;;;;2603117;54;20082;31
2023/01/29 05:05:30;;;;;;;11.02;6.95;;;-0.90;99.90;;;;;;2603152;54;20199;31
2023/01/29 05:08:07;;;;;;;10.23;7.38;;;-0.90;99.90;;;;;;2621934;46;20865;31
2023/01/29 05:10:45;;;;;;;9.00;7.10;;;-0.90;99.90;;;;;;2701970;39;21057;31
2023/01/29 05:13:19;;;;;;;13.45;7.80;;;-0.90;99.90;;;;;;2621585;46;20349;31
2023/01/29 05:15:58;;;;;;;12.07;8.00;;;-0.90;99.90;;;;;;2602352;54;20062;31
2023/01/29 05:18:35;;;;;;;12.70;7.05;;;-0.90;99.90;;;;;;2603302;54;20758;31
2023/01/29 05:21:11;;;;;;;;;;;-0.90;99.90;;;;;;2603331;54;20832;31
2023/01/29 05:23:52;;;;;;;11.43;7.20;;;-0.90;99.90;;;;;;2603235;54;19938;31
2023/01/29 05:29:19;;;;;;;14.60;7.05;;;-0.90;99.90;;;;;;2621298;47;20944;31
2023/01/29 05:32:00;;;;;;;15.05;7.03;;;-0.90;99.90;;;;;;2701489;39;20555;31
2023/01/29 05:34:36;;;;;;;13.30;7.82;;;-0.90;99.90;;;;;;2603006;54;20026;31
2023/01/29 05:37:12;;;;;;;11.98;8.18;;;-0.90;99.90;;;;;;2602979;54;20053;31
2023/01/29 05:39:53;;;;;;;12.30;7.25;;;-1.00;99.90;;;;;;2602985;54;20693;31
2023/01/29 05:42:31;;;;;;;9.05;6.38;;;-0.90;99.90;;;;;;2602951;54;20878;31
2023/01/29 05:47:46;;;;;;;10.05;6.30;;;-0.90;99.90;;;;;;2603276;54;20034;31
2023/01/29 05:50:23;;;;;;;12.60;7.53;;;-0.90;99.90;;;;;;2700686;39;20635;31
2023/01/29 05:53:02;;;;;;;9.95;7.10;;;-0.90;99.90;;;;;;2602115;54;20854;31
2023/01/29 05:55:39;;;;;;;10.82;7.20;;;-0.90;99.90;;;;;;2701485;39;20555;31
2023/01/29 05:58:13;;;;;;;14.80;7.17;;;-0.90;99.90;;;;;;2603162;54;20909;31
2023/01/29 06:00:49;;;;;;;10.80;7.00;;;-0.90;99.90;;;;;;2602964;54;20360;31
2023/01/29 06:03:30;;;;;;;11.75;7.03;;;-0.90;99.90;;;;;;2603043;54;20027;31
2023/01/29 06:06:08;;;;;;;12.60;7.90;;;-1.00;99.90;;;;;;2602992;54;20093;31
2023/01/29 06:08:48;;;;;;;12.50;8.60;;;-1.00;99.90;;;;;;2602177;54;20596;31
2023/01/29 06:11:25;;;;;;;10.70;6.97;;;-1.00;99.90;;;;;;2603112;54;20899;31
2023/01/29 06:14:04;;;;;;;11.50;7.50;;;-1.00;99.90;;;;;;2602984;54;20853;31
2023/01/29 06:16:38;;;;;;;11.68;7.80;;;-1.00;99.90;;;;;;2620976;47;20787;31
2023/01/29 06:19:21;;;;;;;11.20;7.13;;;-1.00;99.90;;;;;;2603355;54;20027;31
2023/01/29 06:21:56;;;;;;;10.00;7.32;;;-1.00;99.90;;;;;;2720804;39;21146;31
2023/01/29 06:24:34;;;;;;;;;;;-1.00;99.90;;;;;;2603923;54;20038;31
2023/01/29 06:27:12;;;;;;;10.75;7.28;;;-1.10;99.90;;;;;;2603880;54;20869;31
2023/01/29 06:29:49;;;;;;;12.50;7.43;;;-1.00;99.90;;;;;;2603509;54;20105;31
2023/01/29 06:32:28;;;;;;;10.23;7.32;;;-1.10;99.90;;;;;;2603715;54;20759;31
2023/01/29 06:35:09;;;;;;;12.75;7.22;;;-1.10;99.90;;;;;;2602918;54;20163;31
2023/01/29 06:37:52;;;;;;;11.85;7.95;;;-1.10;99.90;;;;;;2603730;54;20147;31
2023/01/29 06:40:32;;;;;;;12.63;7.63;;;-1.10;99.90;;;;;;2603926;54;20860;31
2023/01/29 06:43:08;;;;;;;15.57;8.68;;;-1.20;99.90;;;;;;2603743;54;20053;31
2023/01/29 06:45:49;;;;;;;13.38;8.10;;;-1.20;99.90;;;;;;2603779;54;20871;31
2023/01/29 06:48:28;;;;;;;14.40;8.02;;;-1.20;99.90;;;;;;2603609;54;20063;31
2023/01/29 06:51:02;;;;;;;11.68;7.60;;;-1.20;99.90;;;;;;2603750;54;20042;31
2023/01/29 06:53:42;;;;;;;13.37;8.30;;;-1.20;99.90;;;;;;2603648;54;20026;31
2023/01/29 06:56:19;;;;;;;13.85;8.77;;;-1.20;99.90;;;;;;2603540;54;20040;31
2023/01/29 06:58:57;;;;;;;13.23;8.23;;;-1.20;99.90;;;;;;2603776;54;20164;31
2023/01/29 07:01:35;;;;;;;13.00;8.35;;;-1.20;99.90;;;;;;2603425;54;20050;31
2023/01/29 07:04:09;;;;;;;17.42;8.60;;;-1.20;99.90;;;;;;2621991;46;20100;31
2023/01/29 07:06:47;;;;;;;16.15;8.93;;;-1.20;99.90;;;;;;2603612;54;20752;31
2023/01/29 07:09:23;;;;;;;23.83;11.77;;;-1.20;99.90;;;;;;2603770;54;20065;31
2023/01/29 07:12:02;;;;;;;;;;;-1.20;99.90;;;;;;2603761;54;20022;31
2023/01/29 07:14:39;;;;;;;;;;;-1.20;99.90;;;;;;2702290;39;21219;31
2023/01/29 07:17:15;;;;;;;12.88;9.13;;;-1.20;99.90;;;;;;2603542;54;19935;31
2023/01/29 07:22:22;;;;;;;13.32;8.35;;;-1.10;99.90;;;;;;2603557;54;20901;31
2023/01/29 07:24:59;;;;;;;13.82;8.18;;;-1.10;99.90;;;;;;2603686;54;20030;31
2023/01/29 07:27:40;;;;;;;15.07;9.25;;;-1.10;99.90;;;;;;2603535;54;20864;31
2023/01/29 07:30:20;;;;;;;13.45;8.25;;;-1.10;99.90;;;;;;2621748;46;20515;31
2023/01/29 07:32:55;;;;;;;13.88;8.55;;;-1.10;99.90;;;;;;2602880;54;20876;31
2023/01/29 07:35:34;;;;;;;16.38;7.93;;;-1.10;99.90;;;;;;2603579;54;20832;31
2023/01/29 07:38:13;;;;;;;14.60;8.85;;;-1.10;99.90;;;;;;2603686;54;20060;31
2023/01/29 07:40:50;;;;;;;13.93;8.77;;;-1.00;99.90;;;;;;2603571;54;20030;31
2023/01/29 07:43:30;;;;;;;12.70;8.38;;;-0.90;99.90;;;;;;2603476;54;20076;31
2023/01/29 07:46:10;;;;;;;16.10;7.80;;;-0.80;99.90;;;;;;2621761;46;20030;31
2023/01/29 07:48:50;;;;;;;13.07;8.77;;;-0.90;99.90;;;;;;2603684;54;19934;31
2023/01/29 07:51:31;;;;;;;12.85;8.70;;;-0.90;99.90;;;;;;2622114;46;20540;31
2023/01/29 07:54:09;;;;;;;13.65;8.35;;;-0.90;99.90;;;;;;2621811;46;20046;31
2023/01/29 07:56:47;;;;;;;14.20;9.00;;;-0.90;99.90;;;;;;2603613;54;20091;31
2023/01/29 07:59:21;;;;;;;12.20;8.30;;;-0.80;99.90;;;;;;2603385;54;20030;31
2023/01/29 08:02:02;;;;;;;12.75;8.18;;;-0.80;99.90;;;;;;2603702;54;20842;31
2023/01/29 08:04:53;;;;;;;16.20;8.63;;;-0.80;99.90;;;;;;2621826;46;20030;31
2023/01/29 08:07:31;;;;;;;14.02;9.10;;;-0.70;99.90;;;;;;2603383;54;20136;31
2023/01/29 08:10:10;;;;;;;13.35;7.20;;;-0.70;99.90;;;;;;2603187;54;20089;31
2023/01/29 08:15:30;;;;;;;14.40;8.45;;;-0.60;99.90;;;;;;2603243;54;20098;31
2023/01/29 08:18:18;;;;;;;14.73;9.18;;;-0.60;99.90;;;;;;2621811;46;20775;31
2023/01/29 08:21:00;;;;;;;14.70;9.38;;;-0.60;99.90;;;;;;2621776;46;20030;31
2023/01/29 08:23:41;;;;;;;14.65;8.82;;;-0.60;99.90;;;;;;2603515;54;20052;31
2023/01/29 08:31:58;;;;;;;17.25;8.95;;;-0.50;99.90;;;;;;2619755;46;20018;31
2023/01/29 08:34:39;;;;;;;12.00;8.27;;;-0.50;99.90;;;;;;2602681;54;20757;31
2023/01/29 08:37:26;;;;;;;18.58;9.65;;;-0.40;99.90;;;;;;2614604;46;20041;31
2023/01/29 08:53:07;;;;;;;14.45;9.35;;;-0.10;99.90;;;;;;2701756;39;20552;31
2023/01/29 08:56:05;;;;;;;14.35;9.40;;;0.00;99.90;;;;;;2603324;54;20030;31
2023/01/29 08:58:43;;;;;;;19.80;11.30;;;0.10;99.90;;;;;;2603153;54;20063;31
2023/01/29 09:01:27;;;;;;;22.25;11.43;;;0.20;99.90;;;;;;2603410;54;20053;31
2023/01/29 09:06:38;;;;;;;20.90;10.63;;;0.20;99.90;;;;;;2702233;39;21160;31
2023/01/29 09:09:22;;;;;;;17.92;10.32;;;0.20;99.90;;;;;;2603287;54;20032;31
2023/01/29 09:12:03;;;;;;;15.93;8.98;;;0.30;99.90;;;;;;2603280;54;20909;31
2023/01/29 09:14:44;;;;;;;16.60;10.40;;;0.40;99.90;;;;;;2603113;54;20073;31
2023/01/29 09:23:19;;;;;;;19.05;10.80;;;0.60;99.90;;;;;;2603477;54;20027;31
2023/01/29 09:29:45;;;;;;;19.70;9.93;;;0.70;99.90;;;;;;2602479;54;20781;31
2023/01/29 09:32:25;;;;;;;14.75;9.80;;;0.60;99.90;;;;;;2621182;47;20029;31
2023/01/29 10:03:41;;;;;;;18.23;9.88;;;1.80;99.90;;;;;;2603705;54;20903;31
2023/01/29 10:06:32;;;;;;;11.57;7.38;;;2.00;99.90;;;;;;2603842;54;20038;31
2023/01/29 10:09:39;;;;;;;14.40;8.43;;;2.20;99.90;;;;;;2603788;54;20026;31
2023/01/29 10:12:28;;;;;;;12.70;8.43;;;2.40;99.90;;;;;;2603922;54;20951;31
2023/01/29 10:15:17;;;;;;;12.98;8.05;;;2.40;99.90;;;;;;2622571;46;20251;31
2023/01/29 10:24:25;;;;;;;15.00;8.90;;;2.30;99.90;;;;;;2622323;46;21200;31
2023/01/29 10:27:30;;;;;;;15.75;9.25;;;2.30;99.90;;;;;;2621910;46;20929;31
2023/01/29 11:23:36;;;;;;;16.23;9.30;;;2.10;99.90;;;;;;2601790;54;20826;31
2023/01/29 11:33:03;;;;;;;15.23;9.20;;;2.10;99.90;;;;;;2601730;54;20010;31
2023/01/29 11:36:01;;;;;;;12.20;8.30;;;2.10;99.90;;;;;;2603716;54;20669;31
2023/01/29 11:39:07;;;;;;;13.25;8.05;;;2.10;99.90;;;;;;2618876;46;19994;31
2023/01/29 11:45:25;;;;;;;13.57;7.03;;;2.20;99.90;;;;;;2603306;54;20875;31
2023/01/29 11:48:21;;;;;;;13.68;7.93;;;2.10;99.90;;;;;;2621723;46;20299;31
2023/01/29 11:51:01;;;;;;;13.15;7.70;;;2.00;99.90;;;;;;2603533;54;20135;31
2023/01/29 11:53:44;;;;;;;12.93;7.40;;;2.00;99.90;;;;;;2603582;54;20027;31
2023/01/29 11:56:50;;;;;;;11.73;7.10;;;2.00;99.90;;;;;;2621706;46;20936;31
2023/01/29 12:02:50;;;;;;;17.63;7.17;;;2.10;99.90;;;;;;2601495;54;20831;31
2023/01/29 13:19:32;;;;;;;13.73;7.30;;;2.10;99.90;;;;;;2603564;46;20030;31
2023/01/29 14:34:36;;;;;;;17.52;7.97;;;2.40;99.90;;;;;;2613372;46;20015;31
2023/01/29 14:51:16;;;;;;;13.85;9.57;;;2.20;99.90;;;;;;2603601;54;20084;31
2023/01/29 14:54:19;;;;;;;17.33;10.20;;;2.20;99.90;;;;;;2603404;54;20022;31
2023/01/29 14:57:03;;;;;;;16.92;9.00;;;2.10;99.90;;;;;;2603448;54;20047;31
2023/01/29 15:00:06;;;;;;;19.33;10.75;;;2.10;99.90;;;;;;2603170;54;20029;31
2023/01/29 15:02:47;;;;;;;17.90;10.97;;;2.00;99.90;;;;;;2603142;54;20875;31
2023/01/29 15:08:53;;;;;;;17.97;9.73;;;1.90;99.90;;;;;;2603574;54;20053;31
2023/01/29 16:24:21;;;;;;;25.02;15.02;;;1.50;99.90;;;;;;2601493;54;20844;31
2023/01/29 17:49:32;;;;;;;29.00;16.35;;;1.20;99.90;;;;;;2601072;54;20928;31
2023/01/29 17:52:26;;;;;;;26.90;15.75;;;1.20;99.90;;;;;;2602249;54;20026;31
2023/01/29 18:40:25;;;;;;;20.98;11.38;;;1.20;99.90;;;;;;2603610;54;19938;31
2023/01/29 18:46:46;;;;;;;21.90;11.40;;;1.30;99.90;;;;;;2603790;54;20027;31
2023/01/29 19:27:17;;;;;;;20.20;10.50;;;1.30;99.90;;;;;;2601487;54;20887;31
2023/01/29 19:33:21;;;;;;;17.23;9.77;;;1.30;99.90;;;;;;2603590;54;20122;31
2023/01/29 20:02:17;;;;;;;30.60;18.80;;;1.30;99.90;;;;;;2603456;54;20012;31
2023/01/29 20:07:57;;;;;;;37.95;21.27;;;1.30;99.90;;;;;;2917071;46;20014;31
2023/01/29 20:10:37;;;;;;;81.18;37.70;;;1.20;99.90;;;;;;2603577;54;20806;31
2023/01/29 20:13:22;;;;;;;40.92;23.92;;;1.20;99.90;;;;;;2603546;54;20085;31
2023/01/29 20:19:26;;;;;;;34.22;18.88;;;1.10;99.90;;;;;;2603257;54;20026;31
2023/01/29 20:22:34;;;;;;;42.35;26.17;;;1.10;99.90;;;;;;2603276;54;20027;31
2023/01/29 20:25:39;;;;;;;41.25;25.67;;;1.00;99.90;;;;;;2603164;54;20034;31
2023/01/29 20:28:18;;;;;;;39.80;24.75;;;1.00;99.90;;;;;;2603362;54;20035;31
2023/01/29 20:31:20;;;;;;;28.73;17.40;;;1.00;99.90;;;;;;2603107;54;20190;31
2023/01/29 20:39:59;;;;;;;29.50;17.40;;;0.90;99.90;;;;;;2602668;54;20022;31
2023/01/29 20:45:52;;;;;;;36.97;22.00;;;0.90;99.90;;;;;;2603331;54;20034;31
2023/01/29 20:48:40;;;;;;;35.10;20.77;;;0.90;99.90;;;;;;2621979;46;20840;31
2023/01/29 20:51:46;;;;;;;37.20;21.10;;;0.80;99.90;;;;;;2603105;54;20871;31
2023/01/29 20:54:37;;;;;;;37.10;21.58;;;0.90;99.90;;;;;;2603512;54;20238;31
2023/01/29 21:00:01;;;;;;;31.13;19.60;;;0.80;99.90;;;;;;2603082;54;20027;31
2023/01/29 21:05:57;;;;;;;32.88;21.42;;;0.70;99.90;;;;;;2621301;46;20042;31
2023/01/29 21:24:41;;;;;;;33.25;22.40;;;0.40;99.90;;;;;;2610468;54;20026;31
2023/01/29 21:39:49;;;;;;;37.53;18.80;;;0.30;99.90;;;;;;2600429;54;20929;31
2023/01/29 21:43:19;;;;;;;36.25;22.00;;;0.30;99.90;;;;;;2700750;39;22679;31
2023/01/29 21:46:27;;;;;;;46.08;27.13;;;0.20;99.90;;;;;;2603044;54;20029;31
2023/01/29 21:52:39;;;;;;;33.08;21.02;;;0.20;99.90;;;;;;2603926;54;20029;31
2023/01/29 21:58:43;;;;;;;37.55;22.65;;;0.10;99.90;;;;;;2603021;54;20792;31
2023/01/29 22:07:56;;;;;;;33.13;20.05;;;0.10;99.90;;;;;;2607432;46;20049;31
2023/01/29 22:10:41;;;;;;;29.02;16.90;;;0.00;99.90;;;;;;2603783;54;20030;31
2023/01/29 22:13:26;;;;;;;30.25;16.55;;;0.00;99.90;;;;;;2603929;54;20022;31
2023/01/29 22:16:15;;;;;;;27.25;17.00;;;0.00;99.90;;;;;;2622102;46;20896;31
2023/01/29 22:31:03;;;;;;;24.73;15.45;;;-0.10;99.90;;;;;;2611873;54;20847;31
2023/01/29 22:36:58;;;;;;;25.45;14.18;;;-0.10;99.90;;;;;;2611717;54;20074;31
2023/01/29 22:39:41;;;;;;;24.60;14.80;;;-0.20;99.90;;;;;;2603571;54;20052;31
2023/01/29 23:42:32;;;;;;;16.90;11.43;;;0.00;99.90;;;;;;2611432;54;20019;31
